<?xml version="1.0" encoding="UTF-8" standalone="no" ?>
<gpx xmlns="http://www.topografix.com/GPX/1/1" xmlns:xsi="http://www.w3.org/2001/XMLSchema-instance" xsi:schemaLocation="http://www.topografix.com/GPX/1/1 http://www.topografix.com/GPX/1/1/gpx.xsd" version="1.1" creator="VisuGPX - https://www.visugpx.com">
  <metadata>
    <name>parcours cremieu shr 22 KM  JUILLET 23-16305987</name>
  </metadata>
  <trk>
    <name><![CDATA[parcours shr 22 KM  JUILLET 23-16305987]]></name>
    <extensions>
      <line xmlns="http://www.topografix.com/GPX/gpx_style/0/2">
        <color>0000FF</color>
        <width>4</width>
      </line>
    </extensions>
    <trkseg>
      <trkpt lat="45.69266" lon="5.30831">
        <ele>329</ele>
        <time>2023-03-04T20:13:48Z</time>
      </trkpt>
      <trkpt lat="45.69291" lon="5.30986">
        <ele>327</ele>
        <time>2023-03-04T20:15:17Z</time>
      </trkpt>
      <trkpt lat="45.69418" lon="5.31082">
        <ele>329</ele>
        <time>2023-03-04T20:17:12Z</time>
      </trkpt>
      <trkpt lat="45.69576" lon="5.31149">
        <ele>331</ele>
        <time>2023-03-04T20:19:24Z</time>
      </trkpt>
      <trkpt lat="45.69685" lon="5.31246">
        <ele>330</ele>
        <time>2023-03-04T20:21:07Z</time>
      </trkpt>
      <trkpt lat="45.6962" lon="5.31371">
        <ele>327</ele>
        <time>2023-03-04T20:22:34Z</time>
      </trkpt>
      <trkpt lat="45.69529" lon="5.31611">
        <ele>321</ele>
        <time>2023-03-04T20:25:07Z</time>
      </trkpt>
      <trkpt lat="45.69528" lon="5.31769">
        <ele>315</ele>
        <time>2023-03-04T20:26:35Z</time>
      </trkpt>
      <trkpt lat="45.69492" lon="5.31919">
        <ele>309</ele>
        <time>2023-03-04T20:28:04Z</time>
      </trkpt>
      <trkpt lat="45.6949" lon="5.32162">
        <ele>298</ele>
        <time>2023-03-04T20:30:20Z</time>
      </trkpt>
      <trkpt lat="45.69513" lon="5.32266">
        <ele>295</ele>
        <time>2023-03-04T20:31:21Z</time>
      </trkpt>
      <trkpt lat="45.69484" lon="5.32341">
        <ele>297</ele>
        <time>2023-03-04T20:32:08Z</time>
      </trkpt>
      <trkpt lat="45.69487" lon="5.32482">
        <ele>296</ele>
        <time>2023-03-04T20:33:27Z</time>
      </trkpt>
      <trkpt lat="45.69517" lon="5.32551">
        <ele>291</ele>
        <time>2023-03-04T20:34:13Z</time>
      </trkpt>
      <trkpt lat="45.69368" lon="5.32676">
        <ele>275</ele>
        <time>2023-03-04T20:36:31Z</time>
      </trkpt>
      <trkpt lat="45.69353" lon="5.32748">
        <ele>270</ele>
        <time>2023-03-04T20:37:13Z</time>
      </trkpt>
      <trkpt lat="45.69456" lon="5.3292">
        <ele>270</ele>
        <time>2023-03-04T20:39:20Z</time>
      </trkpt>
      <trkpt lat="45.69427" lon="5.33065">
        <ele>268</ele>
        <time>2023-03-04T20:40:44Z</time>
      </trkpt>
      <trkpt lat="45.69516" lon="5.33134">
        <ele>263</ele>
        <time>2023-03-04T20:42:05Z</time>
      </trkpt>
      <trkpt lat="45.69534" lon="5.3329">
        <ele>258</ele>
        <time>2023-03-04T20:43:34Z</time>
      </trkpt>
      <trkpt lat="45.69523" lon="5.33571">
        <ele>247</ele>
        <time>2023-03-04T20:46:11Z</time>
      </trkpt>
      <trkpt lat="45.69528" lon="5.33683">
        <ele>244</ele>
        <time>2023-03-04T20:47:14Z</time>
      </trkpt>
      <trkpt lat="45.6948" lon="5.33787">
        <ele>243</ele>
        <time>2023-03-04T20:48:23Z</time>
      </trkpt>
      <trkpt lat="45.69552" lon="5.33975">
        <ele>246</ele>
        <time>2023-03-04T20:50:23Z</time>
      </trkpt>
      <trkpt lat="45.69523" lon="5.34031">
        <ele>247</ele>
        <time>2023-03-04T20:51:02Z</time>
      </trkpt>
      <trkpt lat="45.69557" lon="5.34055">
        <ele>247</ele>
        <time>2023-03-04T20:51:33Z</time>
      </trkpt>
      <trkpt lat="45.69662" lon="5.34072">
        <ele>247</ele>
        <time>2023-03-04T20:52:57Z</time>
      </trkpt>
      <trkpt lat="45.69701" lon="5.34165">
        <ele>249</ele>
        <time>2023-03-04T20:53:58Z</time>
      </trkpt>
      <trkpt lat="45.69747" lon="5.34303">
        <ele>250</ele>
        <time>2023-03-04T20:55:24Z</time>
      </trkpt>
      <trkpt lat="45.6983" lon="5.34411">
        <ele>252</ele>
        <time>2023-03-04T20:56:53Z</time>
      </trkpt>
      <trkpt lat="45.70132" lon="5.34085">
        <ele>268</ele>
        <time>2023-03-04T21:01:56Z</time>
      </trkpt>
      <trkpt lat="45.70112" lon="5.34021">
        <ele>267</ele>
        <time>2023-03-04T21:02:35Z</time>
      </trkpt>
      <trkpt lat="45.70116" lon="5.33873">
        <ele>262</ele>
        <time>2023-03-04T21:03:58Z</time>
      </trkpt>
      <trkpt lat="45.70145" lon="5.33711">
        <ele>262</ele>
        <time>2023-03-04T21:05:32Z</time>
      </trkpt>
      <trkpt lat="45.70165" lon="5.33536">
        <ele>267</ele>
        <time>2023-03-04T21:07:11Z</time>
      </trkpt>
      <trkpt lat="45.70204" lon="5.33454">
        <ele>275</ele>
        <time>2023-03-04T21:08:06Z</time>
      </trkpt>
      <trkpt lat="45.70254" lon="5.334">
        <ele>281</ele>
        <time>2023-03-04T21:08:56Z</time>
      </trkpt>
      <trkpt lat="45.70317" lon="5.33363">
        <ele>285</ele>
        <time>2023-03-04T21:09:51Z</time>
      </trkpt>
      <trkpt lat="45.70382" lon="5.33292">
        <ele>288</ele>
        <time>2023-03-04T21:10:56Z</time>
      </trkpt>
      <trkpt lat="45.70376" lon="5.33236">
        <ele>286</ele>
        <time>2023-03-04T21:11:28Z</time>
      </trkpt>
      <trkpt lat="45.70421" lon="5.33188">
        <ele>287</ele>
        <time>2023-03-04T21:12:13Z</time>
      </trkpt>
      <trkpt lat="45.70525" lon="5.33158">
        <ele>293</ele>
        <time>2023-03-04T21:13:38Z</time>
      </trkpt>
      <trkpt lat="45.70519" lon="5.33085">
        <ele>290</ele>
        <time>2023-03-04T21:14:19Z</time>
      </trkpt>
      <trkpt lat="45.70642" lon="5.32977">
        <ele>288</ele>
        <time>2023-03-04T21:16:15Z</time>
      </trkpt>
      <trkpt lat="45.7069" lon="5.32901">
        <ele>287</ele>
        <time>2023-03-04T21:17:12Z</time>
      </trkpt>
      <trkpt lat="45.70735" lon="5.32745">
        <ele>289</ele>
        <time>2023-03-04T21:18:46Z</time>
      </trkpt>
      <trkpt lat="45.7078" lon="5.32572">
        <ele>298</ele>
        <time>2023-03-04T21:20:30Z</time>
      </trkpt>
      <trkpt lat="45.70823" lon="5.32395">
        <ele>308</ele>
        <time>2023-03-04T21:22:14Z</time>
      </trkpt>
      <trkpt lat="45.70869" lon="5.32313">
        <ele>308</ele>
        <time>2023-03-04T21:23:13Z</time>
      </trkpt>
      <trkpt lat="45.70954" lon="5.32242">
        <ele>311</ele>
        <time>2023-03-04T21:24:32Z</time>
      </trkpt>
      <trkpt lat="45.70999" lon="5.32153">
        <ele>320</ele>
        <time>2023-03-04T21:25:33Z</time>
      </trkpt>
      <trkpt lat="45.70999" lon="5.32101">
        <ele>324</ele>
        <time>2023-03-04T21:26:02Z</time>
      </trkpt>
      <trkpt lat="45.71111" lon="5.31844">
        <ele>342</ele>
        <time>2023-03-04T21:28:52Z</time>
      </trkpt>
      <trkpt lat="45.71154" lon="5.31674">
        <ele>350</ele>
        <time>2023-03-04T21:30:33Z</time>
      </trkpt>
      <trkpt lat="45.71261" lon="5.31338">
        <ele>350</ele>
        <time>2023-03-04T21:33:59Z</time>
      </trkpt>
      <trkpt lat="45.71351" lon="5.31143">
        <ele>352</ele>
        <time>2023-03-04T21:36:10Z</time>
      </trkpt>
      <trkpt lat="45.71487" lon="5.31246">
        <ele>359</ele>
        <time>2023-03-04T21:38:13Z</time>
      </trkpt>
      <trkpt lat="45.71514" lon="5.31155">
        <ele>361</ele>
        <time>2023-03-04T21:39:08Z</time>
      </trkpt>
      <trkpt lat="45.71665" lon="5.31202">
        <ele>365</ele>
        <time>2023-03-04T21:41:12Z</time>
      </trkpt>
      <trkpt lat="45.71974" lon="5.31199">
        <ele>374</ele>
        <time>2023-03-04T21:45:20Z</time>
      </trkpt>
      <trkpt lat="45.72052" lon="5.31279">
        <ele>372</ele>
        <time>2023-03-04T21:46:36Z</time>
      </trkpt>
      <trkpt lat="45.72198" lon="5.3129">
        <ele>369</ele>
        <time>2023-03-04T21:48:34Z</time>
      </trkpt>
      <trkpt lat="45.72258" lon="5.3127">
        <ele>364</ele>
        <time>2023-03-04T21:49:23Z</time>
      </trkpt>
      <trkpt lat="45.72301" lon="5.31346">
        <ele>350</ele>
        <time>2023-03-04T21:50:18Z</time>
      </trkpt>
      <trkpt lat="45.72411" lon="5.3137">
        <ele>347</ele>
        <time>2023-03-04T21:51:47Z</time>
      </trkpt>
      <trkpt lat="45.72481" lon="5.31346">
        <ele>346</ele>
        <time>2023-03-04T21:52:44Z</time>
      </trkpt>
      <trkpt lat="45.72512" lon="5.31264">
        <ele>348</ele>
        <time>2023-03-04T21:53:36Z</time>
      </trkpt>
      <trkpt lat="45.72804" lon="5.30972">
        <ele>366</ele>
        <time>2023-03-04T21:58:21Z</time>
      </trkpt>
      <trkpt lat="45.72847" lon="5.30812">
        <ele>369</ele>
        <time>2023-03-04T21:59:57Z</time>
      </trkpt>
      <trkpt lat="45.72751" lon="5.30614">
        <ele>369</ele>
        <time>2023-03-04T22:02:12Z</time>
      </trkpt>
      <trkpt lat="45.72749" lon="5.30334">
        <ele>371</ele>
        <time>2023-03-04T22:04:49Z</time>
      </trkpt>
      <trkpt lat="45.72763" lon="5.30012">
        <ele>371</ele>
        <time>2023-03-04T22:07:49Z</time>
      </trkpt>
      <trkpt lat="45.72792" lon="5.29747">
        <ele>368</ele>
        <time>2023-03-04T22:10:19Z</time>
      </trkpt>
      <trkpt lat="45.72769" lon="5.29575">
        <ele>360</ele>
        <time>2023-03-04T22:11:57Z</time>
      </trkpt>
      <trkpt lat="45.72728" lon="5.2949">
        <ele>362</ele>
        <time>2023-03-04T22:12:54Z</time>
      </trkpt>
      <trkpt lat="45.72617" lon="5.29381">
        <ele>372</ele>
        <time>2023-03-04T22:14:42Z</time>
      </trkpt>
      <trkpt lat="45.72534" lon="5.29398">
        <ele>389</ele>
        <time>2023-03-04T22:15:49Z</time>
      </trkpt>
      <trkpt lat="45.72374" lon="5.29416">
        <ele>398</ele>
        <time>2023-03-04T22:17:58Z</time>
      </trkpt>
      <trkpt lat="45.72363" lon="5.29133">
        <ele>405</ele>
        <time>2023-03-04T22:20:36Z</time>
      </trkpt>
      <trkpt lat="45.72427" lon="5.28941">
        <ele>404</ele>
        <time>2023-03-04T22:22:35Z</time>
      </trkpt>
      <trkpt lat="45.72359" lon="5.28929">
        <ele>396</ele>
        <time>2023-03-04T22:23:30Z</time>
      </trkpt>
      <trkpt lat="45.72334" lon="5.28891">
        <ele>392</ele>
        <time>2023-03-04T22:23:59Z</time>
      </trkpt>
      <trkpt lat="45.72396" lon="5.28711">
        <ele>395</ele>
        <time>2023-03-04T22:25:51Z</time>
      </trkpt>
      <trkpt lat="45.72402" lon="5.28581">
        <ele>398</ele>
        <time>2023-03-04T22:27:04Z</time>
      </trkpt>
      <trkpt lat="45.7233" lon="5.2838">
        <ele>371</ele>
        <time>2023-03-04T22:29:11Z</time>
      </trkpt>
      <trkpt lat="45.72369" lon="5.28023">
        <ele>342</ele>
        <time>2023-03-04T22:32:33Z</time>
      </trkpt>
      <trkpt lat="45.72474" lon="5.27787">
        <ele>328</ele>
        <time>2023-03-04T22:35:09Z</time>
      </trkpt>
      <trkpt lat="45.72507" lon="5.2771">
        <ele>324</ele>
        <time>2023-03-04T22:35:59Z</time>
      </trkpt>
      <trkpt lat="45.72586" lon="5.27669">
        <ele>314</ele>
        <time>2023-03-04T22:37:07Z</time>
      </trkpt>
      <trkpt lat="45.72545" lon="5.27639">
        <ele>318</ele>
        <time>2023-03-04T22:37:44Z</time>
      </trkpt>
      <trkpt lat="45.72559" lon="5.27456">
        <ele>329</ele>
        <time>2023-03-04T22:39:26Z</time>
      </trkpt>
      <trkpt lat="45.72707" lon="5.27117">
        <ele>319</ele>
        <time>2023-03-04T22:43:10Z</time>
      </trkpt>
      <trkpt lat="45.72726" lon="5.26934">
        <ele>311</ele>
        <time>2023-03-04T22:44:53Z</time>
      </trkpt>
      <trkpt lat="45.72615" lon="5.26857">
        <ele>311</ele>
        <time>2023-03-04T22:46:32Z</time>
      </trkpt>
      <trkpt lat="45.72598" lon="5.26695">
        <ele>296</ele>
        <time>2023-03-04T22:48:04Z</time>
      </trkpt>
      <trkpt lat="45.72575" lon="5.26591">
        <ele>299</ele>
        <time>2023-03-04T22:49:05Z</time>
      </trkpt>
      <trkpt lat="45.72662" lon="5.2642">
        <ele>299</ele>
        <time>2023-03-04T22:51:03Z</time>
      </trkpt>
      <trkpt lat="45.7265" lon="5.26279">
        <ele>305</ele>
        <time>2023-03-04T22:52:22Z</time>
      </trkpt>
      <trkpt lat="45.72641" lon="5.26069">
        <ele>305</ele>
        <time>2023-03-04T22:54:20Z</time>
      </trkpt>
      <trkpt lat="45.72559" lon="5.25927">
        <ele>298</ele>
        <time>2023-03-04T22:56:03Z</time>
      </trkpt>
      <trkpt lat="45.72516" lon="5.25824">
        <ele>285</ele>
        <time>2023-03-04T22:57:10Z</time>
      </trkpt>
      <trkpt lat="45.72477" lon="5.25771">
        <ele>285</ele>
        <time>2023-03-04T22:57:53Z</time>
      </trkpt>
      <trkpt lat="45.72421" lon="5.25792">
        <ele>287</ele>
        <time>2023-03-04T22:58:39Z</time>
      </trkpt>
      <trkpt lat="45.72312" lon="5.26031">
        <ele>298</ele>
        <time>2023-03-04T23:01:19Z</time>
      </trkpt>
      <trkpt lat="45.72227" lon="5.26225">
        <ele>293</ele>
        <time>2023-03-04T23:03:27Z</time>
      </trkpt>
      <trkpt lat="45.72141" lon="5.26252">
        <ele>293</ele>
        <time>2023-03-04T23:04:38Z</time>
      </trkpt>
      <trkpt lat="45.7217" lon="5.2606">
        <ele>295</ele>
        <time>2023-03-04T23:06:27Z</time>
      </trkpt>
      <trkpt lat="45.72211" lon="5.25921">
        <ele>291</ele>
        <time>2023-03-04T23:07:52Z</time>
      </trkpt>
      <trkpt lat="45.72159" lon="5.25786">
        <ele>287</ele>
        <time>2023-03-04T23:09:18Z</time>
      </trkpt>
      <trkpt lat="45.71951" lon="5.25883">
        <ele>289</ele>
        <time>2023-03-04T23:12:13Z</time>
      </trkpt>
      <trkpt lat="45.71821" lon="5.2601">
        <ele>291</ele>
        <time>2023-03-04T23:14:19Z</time>
      </trkpt>
      <trkpt lat="45.71729" lon="5.26031">
        <ele>284</ele>
        <time>2023-03-04T23:15:34Z</time>
      </trkpt>
      <trkpt lat="45.71656" lon="5.26211">
        <ele>283</ele>
        <time>2023-03-04T23:17:30Z</time>
      </trkpt>
      <trkpt lat="45.71572" lon="5.26535">
        <ele>283</ele>
        <time>2023-03-04T23:20:43Z</time>
      </trkpt>
      <trkpt lat="45.71489" lon="5.2673">
        <ele>282</ele>
        <time>2023-03-04T23:22:51Z</time>
      </trkpt>
      <trkpt lat="45.71479" lon="5.27084">
        <ele>311</ele>
        <time>2023-03-04T23:26:09Z</time>
      </trkpt>
      <trkpt lat="45.71473" lon="5.27179">
        <ele>316</ele>
        <time>2023-03-04T23:27:02Z</time>
      </trkpt>
      <trkpt lat="45.71537" lon="5.27199">
        <ele>332</ele>
        <time>2023-03-04T23:27:55Z</time>
      </trkpt>
      <trkpt lat="45.71553" lon="5.27258">
        <ele>338</ele>
        <time>2023-03-04T23:28:30Z</time>
      </trkpt>
      <trkpt lat="45.71372" lon="5.27433">
        <ele>331</ele>
        <time>2023-03-04T23:31:25Z</time>
      </trkpt>
      <trkpt lat="45.71285" lon="5.27639">
        <ele>335</ele>
        <time>2023-03-04T23:33:40Z</time>
      </trkpt>
      <trkpt lat="45.71271" lon="5.2779">
        <ele>343</ele>
        <time>2023-03-04T23:35:05Z</time>
      </trkpt>
      <trkpt lat="45.71073" lon="5.281">
        <ele>336</ele>
        <time>2023-03-04T23:39:00Z</time>
      </trkpt>
      <trkpt lat="45.70888" lon="5.2825">
        <ele>328</ele>
        <time>2023-03-04T23:41:50Z</time>
      </trkpt>
      <trkpt lat="45.70766" lon="5.28404">
        <ele>326</ele>
        <time>2023-03-04T23:44:00Z</time>
      </trkpt>
      <trkpt lat="45.70679" lon="5.28672">
        <ele>329</ele>
        <time>2023-03-04T23:46:45Z</time>
      </trkpt>
      <trkpt lat="45.70791" lon="5.28746">
        <ele>340</ele>
        <time>2023-03-04T23:48:24Z</time>
      </trkpt>
      <trkpt lat="45.70939" lon="5.28725">
        <ele>346</ele>
        <time>2023-03-04T23:50:23Z</time>
      </trkpt>
      <trkpt lat="45.71077" lon="5.28755">
        <ele>342</ele>
        <time>2023-03-04T23:52:15Z</time>
      </trkpt>
      <trkpt lat="45.70993" lon="5.28784">
        <ele>340</ele>
        <time>2023-03-04T23:53:24Z</time>
      </trkpt>
      <trkpt lat="45.71003" lon="5.28885">
        <ele>334</ele>
        <time>2023-03-04T23:54:21Z</time>
      </trkpt>
      <trkpt lat="45.70698" lon="5.28991">
        <ele>311</ele>
        <time>2023-03-04T23:58:32Z</time>
      </trkpt>
      <trkpt lat="45.70655" lon="5.29053">
        <ele>313</ele>
        <time>2023-03-04T23:59:21Z</time>
      </trkpt>
      <trkpt lat="45.70669" lon="5.2928">
        <ele>327</ele>
        <time>2023-03-05T00:01:29Z</time>
      </trkpt>
      <trkpt lat="45.70818" lon="5.29537">
        <ele>329</ele>
        <time>2023-03-05T00:04:35Z</time>
      </trkpt>
      <trkpt lat="45.70976" lon="5.29632">
        <ele>324</ele>
        <time>2023-03-05T00:06:53Z</time>
      </trkpt>
      <trkpt lat="45.7082" lon="5.29702">
        <ele>310</ele>
        <time>2023-03-05T00:09:04Z</time>
      </trkpt>
      <trkpt lat="45.7082" lon="5.298">
        <ele>308</ele>
        <time>2023-03-05T00:09:58Z</time>
      </trkpt>
      <trkpt lat="45.70793" lon="5.29947">
        <ele>320</ele>
        <time>2023-03-05T00:11:23Z</time>
      </trkpt>
      <trkpt lat="45.70867" lon="5.29995">
        <ele>321</ele>
        <time>2023-03-05T00:12:28Z</time>
      </trkpt>
      <trkpt lat="45.70828" lon="5.30021">
        <ele>325</ele>
        <time>2023-03-05T00:13:03Z</time>
      </trkpt>
      <trkpt lat="45.7082" lon="5.30127">
        <ele>336</ele>
        <time>2023-03-05T00:14:02Z</time>
      </trkpt>
      <trkpt lat="45.70859" lon="5.30184">
        <ele>343</ele>
        <time>2023-03-05T00:14:47Z</time>
      </trkpt>
      <trkpt lat="45.70647" lon="5.30629">
        <ele>355</ele>
        <time>2023-03-05T00:19:48Z</time>
      </trkpt>
      <trkpt lat="45.70572" lon="5.30865">
        <ele>355</ele>
        <time>2023-03-05T00:22:13Z</time>
      </trkpt>
      <trkpt lat="45.70331" lon="5.31081">
        <ele>356</ele>
        <time>2023-03-05T00:26:01Z</time>
      </trkpt>
      <trkpt lat="45.70166" lon="5.31081">
        <ele>352</ele>
        <time>2023-03-05T00:28:13Z</time>
      </trkpt>
      <trkpt lat="45.70047" lon="5.30992">
        <ele>348</ele>
        <time>2023-03-05T00:30:00Z</time>
      </trkpt>
      <trkpt lat="45.69979" lon="5.31028">
        <ele>342</ele>
        <time>2023-03-05T00:30:59Z</time>
      </trkpt>
      <trkpt lat="45.69931" lon="5.31116">
        <ele>336</ele>
        <time>2023-03-05T00:32:01Z</time>
      </trkpt>
      <trkpt lat="45.6982" lon="5.31214">
        <ele>330</ele>
        <time>2023-03-05T00:33:45Z</time>
      </trkpt>
      <trkpt lat="45.69704" lon="5.31246">
        <ele>330</ele>
        <time>2023-03-05T00:35:20Z</time>
      </trkpt>
      <trkpt lat="45.69595" lon="5.31146">
        <ele>331</ele>
        <time>2023-03-05T00:37:04Z</time>
      </trkpt>
      <trkpt lat="45.69482" lon="5.31152">
        <ele>331</ele>
        <time>2023-03-05T00:38:34Z</time>
      </trkpt>
      <trkpt lat="45.69381" lon="5.31022">
        <ele>329</ele>
        <time>2023-03-05T00:40:23Z</time>
      </trkpt>
      <trkpt lat="45.69325" lon="5.30989">
        <ele>328</ele>
        <time>2023-03-05T00:41:11Z</time>
      </trkpt>
      <trkpt lat="45.69261" lon="5.30933">
        <ele>327</ele>
        <time>2023-03-05T00:42:11Z</time>
      </trkpt>
      <trkpt lat="45.69296" lon="5.30786">
        <ele>331</ele>
        <time>2023-03-05T00:43:38Z</time>
      </trkpt>
    </trkseg>
  </trk>
</gpx>